Погода Ново Арипуанана неделю

Амасонас, Бразилия

23 - 29 июля
  • 23июля
    Сегодня
    +23°
    +36°
    Небольшая облачность
    ВремяПогодаТемператураВлажностьДавлениеВетер, м/сВероятность осадков
    02:00Ясно и безоблачно+24°C79 %756 мм1.2 м/с5 %
    05:00Ясно и безоблачно+24°C83 %757 мм1.5 м/с5 %
    08:00Ясно и безоблачно+26°C74 %758 мм0.4 м/с5 %
    11:00Облачно с прояснениями+32°C45 %758 мм0.9 м/с5 %
    14:00Небольшая облачность+36°C31 %756 мм2.4 м/с5 %
    17:00Облачно с прояснениями+33°C45 %755 мм2.2 м/с5 %
    20:00Ясно и безоблачно+28°C66 %756 мм1.6 м/с5 %
    23:00Ясно и безоблачно+24°C82 %758 мм1.4 м/с5 %
  • 24июля
    Среда
    +24°
    +37°
    Облачно с прояснениями
    ВремяПогодаТемператураВлажностьДавлениеВетер, м/сВероятность осадков
    02:00Ясно и безоблачно+25°C77 %757 мм1.6 м/с5 %
    05:00Небольшая облачность+24°C82 %757 мм1.2 м/с5 %
    08:00Небольшая облачность+27°C75 %759 мм0.7 м/с5 %
    11:00Небольшая облачность+33°C45 %759 мм0.9 м/с5 %
    14:00Облачно с прояснениями+36°C31 %756 мм1.3 м/с5 %
    17:00Небольшая облачность+34°C48 %755 мм1.0 м/с5 %
    20:00Ясно и безоблачно+29°C57 %756 мм0.2 м/с5 %
    23:00Облачно с прояснениями+25°C78 %757 мм1.9 м/с5 %
  • 25июля
    Четверг
    +24°
    +36°
    Небольшая облачность
    ВремяПогодаТемператураВлажностьДавлениеВетер, м/сВероятность осадков
    02:00Облачно с прояснениями+26°C73 %757 мм0.7 м/с5 %
    05:00Облачно с прояснениями+24°C87 %757 мм1.1 м/с5 %
    08:00Облачно с прояснениями+27°C73 %758 мм0.7 м/с5 %
    11:00Облачно с прояснениями+33°C44 %759 мм1.3 м/с5 %
    14:00Небольшая облачность+35°C39 %756 мм0.8 м/с5 %
    17:00Практически безоблачно+34°C52 %754 мм0.8 м/с5 %
    20:00Ясно и безоблачно+29°C74 %756 мм1.4 м/с5 %
    23:00Небольшая облачность+26°C74 %757 мм2.3 м/с5 %
  • 26июля
    Пятница
    +24°
    +36°
    Ясно и безоблачно
    ВремяПогодаТемператураВлажностьДавлениеВетер, м/сВероятность осадков
    02:00Ясно и безоблачно+25°C82 %755 мм2.2 м/с5 %
    05:00Ясно и безоблачно+24°C90 %755 мм1.2 м/с3 %
    08:00Небольшая облачность+27°C80 %757 мм0.8 м/с3 %
    11:00Практически безоблачно+32°C56 %757 мм1.1 м/с5 %
    14:00Ясно и безоблачно+35°C46 %755 мм1.0 м/с3 %
    17:00Ясно и безоблачно+34°C54 %753 мм0.9 м/с4 %
    20:00Ясно и безоблачно+29°C77 %755 мм1.4 м/с4 %
    23:00Ясно и безоблачно+27°C76 %756 мм2.3 м/с8 %
  • 27июля
    Суббота
    +25°
    +37°
    Практически безоблачно
    ВремяПогодаТемператураВлажностьДавлениеВетер, м/сВероятность осадков
    02:00Ясно и безоблачно+26°C83 %755 мм2.4 м/с4 %
    05:00Ясно и безоблачно+25°C88 %755 мм2.1 м/с8 %
    08:00Ясно и безоблачно+28°C80 %757 мм1.0 м/с3 %
    11:00Практически безоблачно+34°C51 %756 мм1.3 м/с5 %
    14:00Практически безоблачно+36°C37 %754 мм2.4 м/с5 %
    17:00Ясно и безоблачно+34°C50 %754 мм1.7 м/с5 %
    20:00Ясно и безоблачно+29°C67 %755 мм1.8 м/с4 %
    23:00Ясно и безоблачно+27°C74 %756 мм1.5 м/с4 %
Мы используем cookies
Соглашаюсь